createdAt,value
2022-08-24T00:01:17.904Z,2.65
2022-08-24T00:03:47.785Z,2.97
2022-08-24T00:06:22.724Z,2.42
2022-08-24T00:08:52.202Z,2.83
2022-08-24T00:11:21.026Z,2.92
2022-08-24T00:13:49.036Z,2.65
2022-08-24T00:16:18.062Z,2.80
2022-08-24T00:18:47.092Z,2.40
2022-08-24T00:21:14.902Z,2.88
2022-08-24T00:23:44.255Z,3.20
2022-08-24T00:26:12.157Z,2.80
2022-08-24T00:28:40.006Z,2.80
2022-08-24T00:31:08.310Z,2.42
2022-08-24T00:33:36.751Z,2.88
2022-08-24T00:36:06.341Z,2.80
2022-08-24T00:38:35.629Z,2.60
2022-08-24T00:41:05.333Z,2.92
2022-08-24T00:43:33.939Z,2.38
2022-08-24T00:46:15.743Z,2.67
2022-08-24T00:48:48.018Z,2.67
2022-08-24T00:51:21.723Z,2.95
2022-08-24T00:53:53.137Z,2.75
2022-08-24T00:56:27.614Z,2.80
2022-08-24T00:59:00.500Z,2.75
2022-08-24T01:01:29.631Z,2.70
2022-08-24T01:03:59.380Z,2.60
2022-08-24T01:06:27.474Z,3.10
2022-08-24T01:08:56.799Z,2.47
2022-08-24T01:11:33.612Z,2.58
2022-08-24T01:14:03.169Z,2.90
2022-08-24T01:16:49.081Z,2.85
2022-08-24T01:19:29.520Z,2.50
2022-08-24T01:22:10.821Z,2.90
2022-08-24T01:24:41.335Z,2.70
2022-08-24T01:27:11.045Z,2.70
2022-08-24T01:29:42.465Z,2.70
2022-08-24T01:32:11.630Z,2.55
2022-08-24T01:34:39.632Z,2.67
2022-08-24T01:37:10.725Z,2.78
2022-08-24T01:39:44.967Z,2.58
2022-08-24T01:42:14.382Z,2.70
2022-08-24T01:44:45.686Z,3.03
2022-08-24T01:47:17.319Z,3.13
2022-08-24T01:49:49.428Z,2.53
2022-08-24T01:52:24.616Z,2.72
2022-08-24T01:54:54.931Z,2.72
2022-08-24T01:57:25.974Z,2.78
2022-08-24T01:59:57.528Z,2.95
2022-08-24T02:02:29.224Z,2.70
2022-08-24T02:04:57.742Z,2.72
2022-08-24T02:07:26.606Z,3.17
2022-08-24T02:09:55.990Z,2.78
2022-08-24T02:12:25.036Z,2.92
2022-08-24T02:14:53.135Z,2.80
2022-08-24T02:17:22.110Z,2.65
2022-08-24T02:19:51.671Z,2.75
2022-08-24T02:22:20.826Z,2.80
2022-08-24T02:24:48.868Z,2.90
2022-08-24T02:27:18.398Z,2.70
2022-08-24T02:29:46.946Z,2.78
2022-08-24T02:32:15.246Z,2.72
2022-08-24T02:34:44.112Z,2.83
2022-08-24T02:37:12.231Z,3.17
2022-08-24T02:39:40.931Z,2.80
2022-08-24T02:42:15.358Z,2.80
2022-08-24T02:44:44.772Z,3.20
2022-08-24T02:47:12.984Z,2.67
2022-08-24T02:49:41.189Z,3.05
2022-08-24T02:52:10.347Z,2.88
2022-08-24T02:54:39.674Z,2.83
2022-08-24T02:57:08.680Z,2.72
2022-08-24T02:59:36.870Z,3.50
2022-08-24T03:02:06.630Z,2.70
2022-08-24T03:04:35.023Z,2.60
2022-08-24T03:07:05.487Z,2.95
2022-08-24T03:09:33.395Z,3.35
2022-08-24T03:12:01.385Z,2.70
2022-08-24T03:14:29.289Z,2.85
2022-08-24T03:16:57.186Z,2.95
2022-08-24T03:19:26.505Z,3.00
2022-08-24T03:21:55.424Z,3.25
2022-08-24T03:24:23.445Z,2.83
2022-08-24T03:26:51.616Z,2.97
2022-08-24T03:29:19.905Z,3.00
2022-08-24T03:31:48.178Z,3.20
2022-08-24T03:34:17.126Z,3.33
2022-08-24T03:36:47.495Z,3.30
2022-08-24T03:39:18.195Z,3.22
2022-08-24T03:41:49.660Z,2.95
2022-08-24T03:44:22.524Z,3.03
2022-08-24T03:46:52.231Z,3.25
2022-08-24T03:49:21.442Z,3.25
2022-08-24T03:51:51.788Z,3.13
2022-08-24T03:54:23.328Z,3.08
2022-08-24T03:56:51.877Z,3.08
2022-08-24T03:59:20.338Z,3.05
2022-08-24T04:01:51.426Z,3.25
2022-08-24T04:04:19.433Z,2.95
2022-08-24T04:06:48.473Z,3.00
2022-08-24T04:09:19.892Z,3.53
2022-08-24T04:11:49.467Z,3.03
2022-08-24T04:14:26.495Z,3.20
2022-08-24T04:17:07.995Z,3.08
2022-08-24T04:19:57.478Z,3.03
2022-08-24T04:22:32.737Z,3.42
2022-08-24T04:25:02.225Z,3.08
2022-08-24T04:27:37.163Z,3.35
2022-08-24T04:30:06.132Z,3.10
2022-08-24T04:32:44.559Z,3.08
2022-08-24T04:35:12.938Z,3.15
2022-08-24T04:37:40.782Z,3.00
2022-08-24T04:40:11.422Z,3.05
2022-08-24T04:42:46.023Z,3.13
2022-08-24T04:45:16.388Z,3.20
2022-08-24T04:47:44.916Z,3.20
2022-08-24T04:50:13.916Z,3.25
2022-08-24T04:52:42.960Z,3.50
2022-08-24T04:55:12.806Z,3.72
2022-08-24T04:57:41.724Z,3.40
2022-08-24T05:00:11.620Z,3.33
2022-08-24T05:02:45.131Z,3.42
2022-08-24T05:05:14.834Z,3.25
2022-08-24T05:07:44.931Z,2.92
2022-08-24T05:10:16.223Z,3.40
2022-08-24T05:12:45.353Z,3.10
2022-08-24T05:15:13.474Z,3.00
2022-08-24T05:17:49.941Z,3.15
2022-08-24T05:20:20.245Z,2.83
2022-08-24T05:22:49.406Z,2.90
2022-08-24T05:25:20.392Z,2.75
2022-08-24T05:27:48.759Z,2.40
2022-08-24T05:30:16.841Z,2.78
2022-08-24T05:32:44.742Z,2.40
2022-08-24T05:35:12.843Z,2.58
2022-08-24T05:37:43.119Z,2.50
2022-08-24T05:40:18.833Z,2.67
2022-08-24T05:42:58.607Z,2.55
2022-08-24T05:45:26.516Z,2.58
2022-08-24T05:47:54.554Z,2.50
2022-08-24T05:50:55.384Z,2.45
2022-08-24T05:53:24.914Z,2.60
2022-08-24T05:55:52.754Z,2.40
2022-08-24T05:58:30.532Z,2.78
2022-08-24T06:01:07.207Z,2.50
2022-08-24T06:03:35.015Z,2.40
2022-08-24T06:06:05.075Z,2.30
2022-08-24T06:08:33.224Z,2.95
2022-08-24T06:11:02.619Z,2.45
2022-08-24T06:13:32.285Z,2.15
2022-08-24T06:16:20.850Z,2.20
2022-08-24T06:18:50.608Z,2.22
2022-08-24T06:21:24.116Z,2.17
2022-08-24T06:23:52.956Z,2.30
2022-08-24T06:26:39.706Z,2.33
2022-08-24T06:29:09.495Z,2.13
2022-08-24T06:31:46.632Z,1.88
2022-08-24T06:34:17.051Z,2.60
2022-08-24T06:36:45.261Z,2.33
2022-08-24T06:39:14.410Z,2.10
2022-08-24T06:41:46.020Z,2.20
2022-08-24T06:44:22.373Z,1.90
2022-08-24T06:46:59.892Z,2.25
2022-08-24T06:49:27.958Z,2.05
2022-08-24T06:51:56.655Z,2.15
2022-08-24T06:54:24.908Z,2.38
2022-08-24T06:56:52.858Z,2.40
2022-08-24T06:59:22.264Z,2.28
2022-08-24T07:01:50.664Z,2.00
2022-08-24T07:04:18.946Z,2.50
2022-08-24T07:07:09.649Z,2.78
2022-08-24T07:09:37.884Z,2.40
2022-08-24T07:12:06.318Z,2.05
2022-08-24T07:14:36.804Z,2.00
2022-08-24T07:17:04.878Z,2.10
2022-08-24T07:19:33.702Z,2.13
2022-08-24T07:22:04.208Z,2.38
2022-08-24T07:24:33.788Z,2.53
2022-08-24T07:27:01.881Z,2.35
2022-08-24T07:29:47.306Z,2.10
2022-08-24T07:32:19.605Z,2.20
2022-08-24T07:34:47.618Z,1.90
2022-08-24T07:37:15.616Z,1.77
2022-08-24T07:39:47.792Z,1.83
2022-08-24T07:42:25.322Z,1.90
2022-08-24T07:44:57.711Z,1.88
2022-08-24T07:47:38.167Z,3.58
2022-08-24T07:50:19.500Z,1.92
2022-08-24T07:52:48.027Z,1.65
2022-08-24T07:55:15.983Z,1.90
2022-08-24T07:57:46.107Z,1.75
2022-08-24T08:00:16.897Z,1.90
2022-08-24T08:02:50.425Z,1.83
2022-08-24T08:05:20.872Z,1.90
2022-08-24T08:07:52.412Z,2.10
2022-08-24T08:10:21.791Z,1.70
2022-08-24T08:12:49.907Z,1.98
2022-08-24T08:15:17.789Z,2.15
2022-08-24T08:17:56.774Z,1.95
2022-08-24T08:20:24.739Z,2.35
2022-08-24T08:23:10.695Z,7.38
2022-08-24T08:26:07.589Z,1.83
2022-08-24T08:29:01.888Z,1.75
2022-08-24T08:31:31.732Z,2.85
2022-08-24T08:34:04.310Z,1.65
2022-08-24T08:36:49.558Z,2.00
2022-08-24T08:39:25.774Z,2.15
2022-08-24T08:42:17.992Z,1.70
2022-08-24T08:45:00.256Z,1.70
2022-08-24T08:47:52.693Z,1.88
2022-08-24T08:50:35.042Z,2.03
2022-08-24T08:53:45.313Z,1.85
2022-08-24T08:56:23.957Z,1.70
2022-08-24T08:59:01.471Z,2.10
2022-08-24T09:01:47.798Z,1.83
2022-08-24T09:05:10.931Z,1.70
2022-08-24T09:07:49.500Z,1.73
2022-08-24T09:10:34.712Z,1.80
2022-08-24T09:13:17.850Z,1.85
2022-08-24T09:16:27.668Z,2.10
2022-08-24T09:19:15.919Z,1.75
2022-08-24T09:21:56.585Z,1.60
2022-08-24T09:24:42.932Z,1.80
2022-08-24T09:27:43.268Z,1.73
2022-08-24T09:30:18.430Z,1.73
2022-08-24T09:33:08.955Z,1.80
2022-08-24T09:36:04.015Z,1.90
2022-08-24T09:39:01.298Z,1.77
2022-08-24T09:42:08.442Z,1.80
2022-08-24T09:45:03.583Z,1.60
2022-08-24T09:48:15.922Z,1.58
2022-08-24T09:51:42.126Z,1.52
2022-08-24T09:54:48.466Z,1.63
2022-08-24T10:00:34.179Z,1.65
2022-08-24T10:03:27.398Z,1.88
2022-08-24T10:06:15.071Z,1.98
2022-08-24T10:09:10.044Z,1.65
2022-08-24T10:11:45.244Z,1.70
2022-08-24T10:14:30.379Z,1.77
2022-08-24T10:17:10.757Z,1.65
2022-08-24T10:19:53.616Z,1.95
2022-08-24T10:22:34.789Z,1.73
2022-08-24T10:25:16.784Z,1.70
2022-08-24T10:27:56.709Z,1.65
2022-08-24T10:30:56.138Z,1.50
2022-08-24T10:33:28.527Z,1.98
2022-08-24T10:36:08.563Z,1.70
2022-08-24T10:39:04.945Z,1.40
2022-08-24T10:42:11.310Z,1.67
2022-08-24T10:44:48.659Z,1.83
2022-08-24T10:47:26.744Z,1.65
2022-08-24T10:50:21.240Z,1.58
2022-08-24T10:53:04.731Z,1.55
2022-08-24T10:55:35.226Z,1.75
2022-08-24T10:58:42.300Z,1.60
2022-08-24T11:01:24.019Z,1.70
2022-08-24T11:03:57.680Z,1.77
2022-08-24T11:06:28.679Z,1.80
2022-08-24T11:09:02.793Z,1.77
2022-08-24T11:11:34.420Z,1.70
2022-08-24T11:14:04.936Z,1.40
2022-08-24T11:16:40.451Z,2.00
2022-08-24T11:19:13.193Z,1.30
2022-08-24T11:21:46.026Z,1.58
2022-08-24T11:24:27.525Z,1.60
2022-08-24T11:26:58.798Z,1.70
2022-08-24T11:29:51.348Z,1.92
2022-08-24T11:32:28.689Z,1.67
2022-08-24T11:35:02.764Z,1.90
2022-08-24T11:37:34.659Z,1.80
2022-08-24T11:40:04.679Z,1.70
2022-08-24T11:42:49.419Z,1.65
2022-08-24T11:45:30.347Z,1.98
2022-08-24T11:48:14.892Z,1.60
2022-08-24T11:50:49.951Z,1.42
2022-08-24T11:53:44.031Z,1.80
2022-08-24T11:56:31.892Z,1.73
2022-08-24T11:59:07.200Z,1.73
2022-08-24T12:01:42.843Z,1.60
2022-08-24T12:04:42.764Z,2.10
2022-08-24T12:07:21.303Z,1.70
2022-08-24T12:10:13.710Z,2.00
2022-08-24T12:12:52.847Z,2.00
2022-08-24T12:15:28.635Z,1.75
2022-08-24T12:18:05.047Z,1.88
2022-08-24T12:20:38.428Z,1.77
2022-08-24T12:23:15.009Z,2.00
2022-08-24T12:26:02.897Z,1.90
2022-08-24T12:28:38.218Z,1.90
2022-08-24T12:31:17.401Z,1.73
2022-08-24T12:33:52.061Z,1.75
2022-08-24T12:36:26.859Z,2.47
2022-08-24T12:39:09.876Z,1.80
2022-08-24T12:41:49.415Z,2.00
2022-08-24T12:44:18.544Z,1.80
2022-08-24T12:46:53.580Z,1.50
2022-08-24T12:49:27.373Z,1.90
2022-08-24T12:52:13.361Z,2.22
2022-08-24T12:55:00.686Z,1.92
2022-08-24T12:57:54.014Z,1.90
2022-08-24T13:00:29.459Z,1.92
2022-08-24T13:03:01.882Z,1.80
2022-08-24T13:05:41.720Z,1.95
2022-08-24T13:08:19.257Z,1.80
2022-08-24T13:11:01.270Z,1.95
2022-08-24T13:13:46.453Z,2.08
2022-08-24T13:16:48.986Z,2.00
2022-08-24T13:19:32.622Z,2.00
2022-08-24T13:22:02.305Z,2.47
2022-08-24T13:24:48.523Z,2.05
2022-08-24T13:28:06.811Z,2.08
2022-08-24T13:31:03.830Z,1.80
2022-08-24T13:33:36.610Z,1.70
2022-08-24T13:36:09.638Z,2.08
2022-08-24T13:38:59.432Z,2.15
2022-08-24T13:41:49.700Z,1.70
2022-08-24T13:44:42.355Z,2.00
2022-08-24T13:47:19.982Z,1.60
2022-08-24T13:50:03.184Z,1.90
2022-08-24T13:52:41.245Z,2.08
2022-08-24T13:55:30.028Z,1.80
2022-08-24T13:58:13.182Z,1.92
2022-08-24T14:00:48.412Z,1.55
2022-08-24T14:03:59.338Z,1.50
2022-08-24T14:06:33.380Z,1.80
2022-08-24T14:09:16.503Z,1.70
2022-08-24T14:12:01.096Z,2.10
2022-08-24T14:14:53.448Z,2.08
2022-08-24T14:17:49.356Z,1.73
2022-08-24T14:20:50.869Z,2.15
2022-08-24T14:23:58.640Z,1.70
2022-08-24T14:27:35.474Z,1.95
2022-08-24T14:34:17.095Z,2.80
2022-08-24T14:36:53.792Z,1.65
2022-08-24T14:39:37.006Z,2.00
2022-08-24T14:42:16.678Z,2.03
2022-08-24T14:44:57.384Z,1.83
2022-08-24T14:47:39.526Z,1.63
2022-08-24T14:50:15.165Z,1.80
2022-08-24T14:53:02.760Z,1.67
2022-08-24T14:55:43.180Z,2.17
2022-08-24T14:58:30.298Z,1.75
2022-08-24T15:01:25.119Z,1.80
2022-08-24T15:04:03.133Z,2.00
2022-08-24T15:06:46.226Z,1.80
2022-08-24T15:09:20.458Z,1.80
2022-08-24T15:12:50.931Z,1.67
2022-08-24T15:15:39.842Z,1.70
2022-08-24T15:18:41.413Z,1.70
2022-08-24T15:21:59.737Z,1.80
2022-08-24T15:24:59.870Z,2.20
2022-08-24T15:27:57.206Z,1.90
2022-08-24T15:30:37.991Z,1.88
2022-08-24T15:33:46.678Z,1.83
2022-08-24T15:36:54.196Z,1.70
2022-08-24T15:39:46.565Z,1.75
2022-08-24T15:42:16.177Z,2.53
2022-08-24T15:44:51.935Z,2.10
2022-08-24T15:47:36.508Z,1.90
2022-08-24T15:50:08.137Z,1.63
2022-08-24T15:52:46.811Z,2.00
2022-08-24T15:55:39.668Z,2.03
2022-08-24T15:58:49.172Z,1.67
2022-08-24T16:01:41.788Z,1.60
2022-08-24T16:04:17.024Z,1.83
2022-08-24T16:10:19.856Z,1.60
2022-08-24T16:12:51.750Z,2.00
2022-08-24T16:16:05.548Z,2.05
2022-08-24T16:18:57.147Z,1.88
2022-08-24T16:21:34.745Z,1.80
2022-08-24T16:28:27.126Z,2.30
2022-08-24T16:31:07.732Z,1.90
2022-08-24T16:33:43.601Z,2.05
2022-08-24T16:36:14.986Z,2.28
2022-08-24T16:38:48.320Z,2.17
2022-08-24T16:41:18.701Z,2.00
2022-08-24T16:43:57.354Z,1.98
2022-08-24T16:46:43.349Z,1.80
2022-08-24T16:49:33.090Z,1.90
2022-08-24T16:52:05.653Z,2.20
2022-08-24T16:55:04.690Z,1.70
2022-08-24T16:57:36.414Z,1.95
2022-08-24T17:00:10.922Z,1.80
2022-08-24T17:02:39.022Z,2.10
2022-08-24T17:05:07.980Z,1.75
2022-08-24T17:07:38.356Z,1.85
2022-08-24T17:10:14.437Z,2.10
2022-08-24T17:12:42.914Z,1.73
2022-08-24T17:15:16.071Z,1.90
2022-08-24T17:17:49.006Z,1.63
2022-08-24T17:20:17.164Z,1.70
2022-08-24T17:22:44.915Z,1.90
2022-08-24T17:25:12.725Z,1.75
2022-08-24T17:27:40.935Z,1.80
2022-08-24T17:30:10.527Z,2.20
2022-08-24T17:32:39.611Z,1.70
2022-08-24T17:35:07.804Z,2.20
2022-08-24T17:37:36.903Z,2.13
2022-08-24T17:40:07.550Z,1.70
2022-08-24T17:42:50.326Z,1.95
2022-08-24T17:45:19.176Z,1.70
2022-08-24T17:47:48.405Z,1.92
2022-08-24T17:50:19.699Z,1.90
2022-08-24T17:52:48.922Z,1.73
2022-08-24T17:55:27.156Z,1.85
2022-08-24T17:57:55.081Z,2.03
2022-08-24T18:00:23.035Z,1.88
2022-08-24T18:02:52.296Z,1.77
2022-08-24T18:05:21.088Z,2.08
2022-08-24T18:07:54.989Z,2.13
2022-08-24T18:10:27.854Z,1.90
2022-08-24T18:12:55.816Z,1.88
2022-08-24T18:15:34.850Z,1.88
2022-08-24T18:18:09.369Z,2.10
2022-08-24T18:20:39.799Z,1.85
2022-08-24T18:23:11.505Z,1.90
2022-08-24T18:25:45.614Z,1.65
2022-08-24T18:28:15.106Z,1.70
2022-08-24T18:30:44.047Z,2.10
2022-08-24T18:33:13.450Z,2.38
2022-08-24T18:35:41.497Z,1.80
2022-08-24T18:38:09.350Z,2.00
2022-08-24T18:40:37.263Z,1.85
2022-08-24T18:43:05.725Z,2.25
2022-08-24T18:45:34.655Z,1.92
2022-08-24T18:48:03.153Z,1.90
2022-08-24T18:50:36.761Z,2.00
2022-08-24T18:53:06.745Z,1.92
2022-08-24T18:55:34.568Z,2.00
2022-08-24T18:58:02.597Z,2.08
2022-08-24T19:00:30.507Z,1.90
2022-08-24T19:03:02.598Z,2.03
2022-08-24T19:05:31.130Z,1.83
2022-08-24T19:08:00.546Z,1.83
2022-08-24T19:10:32.547Z,2.00
2022-08-24T19:13:03.554Z,2.35
2022-08-24T19:15:39.927Z,2.20
2022-08-24T19:18:09.621Z,1.98
2022-08-24T19:20:42.381Z,2.30
2022-08-24T19:23:19.486Z,2.55
2022-08-24T19:25:47.460Z,2.05
2022-08-24T19:28:15.532Z,2.00
2022-08-24T19:30:44.570Z,2.75
2022-08-24T19:33:14.832Z,2.10
2022-08-24T19:35:43.435Z,2.40
2022-08-24T19:38:14.294Z,2.40
2022-08-24T19:40:44.003Z,2.00
2022-08-24T19:43:19.022Z,2.28
2022-08-24T19:46:06.399Z,2.53
2022-08-24T19:48:36.557Z,2.40
2022-08-24T19:51:12.685Z,2.20
2022-08-24T19:53:42.906Z,2.50
2022-08-24T19:56:16.165Z,2.30
2022-08-24T19:58:51.379Z,2.28
2022-08-24T20:01:22.024Z,2.47
2022-08-24T20:03:50.483Z,2.00
2022-08-24T20:06:21.116Z,1.92
2022-08-24T20:08:49.670Z,2.22
2022-08-24T20:11:20.591Z,2.22
2022-08-24T20:13:53.948Z,2.10
2022-08-24T20:16:24.969Z,2.22
2022-08-24T20:18:53.236Z,2.00
2022-08-24T20:21:25.217Z,1.90
2022-08-24T20:23:56.121Z,2.00
2022-08-24T20:26:43.568Z,1.92
2022-08-24T20:29:12.051Z,2.53
2022-08-24T20:31:55.972Z,1.85
2022-08-24T20:34:36.129Z,2.00
2022-08-24T20:37:04.575Z,2.17
2022-08-24T20:39:39.974Z,2.28
2022-08-24T20:42:14.017Z,2.08
2022-08-24T20:44:44.451Z,2.35
2022-08-24T20:47:13.013Z,2.40
2022-08-24T20:49:41.420Z,2.22
2022-08-24T20:52:09.720Z,2.50
2022-08-24T20:54:39.860Z,2.10
2022-08-24T20:57:12.680Z,2.30
2022-08-24T20:59:40.631Z,2.35
2022-08-24T21:02:09.617Z,2.30
2022-08-24T21:04:38.581Z,2.38
2022-08-24T21:07:06.652Z,2.17
2022-08-24T21:09:34.498Z,2.20
2022-08-24T21:12:02.345Z,2.22
2022-08-24T21:14:31.535Z,2.20
2022-08-24T21:17:00.355Z,2.20
2022-08-24T21:19:30.064Z,2.10
2022-08-24T21:21:57.973Z,2.72
2022-08-24T21:24:26.615Z,2.40
2022-08-24T21:26:54.923Z,2.35
2022-08-24T21:29:23.090Z,2.17
2022-08-24T21:32:10.158Z,2.40
2022-08-24T21:34:43.755Z,2.45
2022-08-24T21:37:15.056Z,2.22
2022-08-24T21:39:43.173Z,1.80
2022-08-24T21:42:12.818Z,2.40
2022-08-24T21:44:42.239Z,2.35
2022-08-24T21:47:11.755Z,2.10
2022-08-24T21:49:41.193Z,2.45
2022-08-24T21:52:09.216Z,2.10
2022-08-24T21:54:37.190Z,2.10
2022-08-24T21:57:06.987Z,2.30
2022-08-24T21:59:35.336Z,2.13
2022-08-24T22:02:05.064Z,2.33
2022-08-24T22:04:35.057Z,2.30
2022-08-24T22:07:03.568Z,2.72
2022-08-24T22:09:31.608Z,2.38
2022-08-24T22:11:59.878Z,2.40
2022-08-24T22:14:27.740Z,2.20
2022-08-24T22:16:55.734Z,2.40
2022-08-24T22:19:23.632Z,2.38
2022-08-24T22:21:52.798Z,2.40
2022-08-24T22:24:21.130Z,2.20
2022-08-24T22:26:49.034Z,2.13
2022-08-24T22:29:16.929Z,2.50
2022-08-24T22:31:45.620Z,2.50
2022-08-24T22:34:20.770Z,2.40
2022-08-24T22:36:49.541Z,2.10
2022-08-24T22:39:18.937Z,2.60
2022-08-24T22:41:46.791Z,2.65
2022-08-24T22:44:21.226Z,2.42
2022-08-24T22:46:51.469Z,2.45
2022-08-24T22:49:21.166Z,2.28
2022-08-24T22:51:49.485Z,2.17
2022-08-24T22:54:19.875Z,2.50
2022-08-24T22:56:50.084Z,2.60
2022-08-24T22:59:20.087Z,2.40
2022-08-24T23:01:50.197Z,2.28
2022-08-24T23:04:20.594Z,2.10
2022-08-24T23:06:49.064Z,2.35
2022-08-24T23:09:18.844Z,2.13
2022-08-24T23:11:47.109Z,2.40
2022-08-24T23:14:16.436Z,2.20
2022-08-24T23:16:47.770Z,1.83
2022-08-24T23:19:34.941Z,2.70
2022-08-24T23:22:07.423Z,2.20
2022-08-24T23:24:37.351Z,2.22
2022-08-24T23:27:06.460Z,2.22
2022-08-24T23:29:34.786Z,2.35
2022-08-24T23:32:03.169Z,2.28
2022-08-24T23:34:31.162Z,2.28
2022-08-24T23:36:59.217Z,2.45
2022-08-24T23:39:27.778Z,2.50
2022-08-24T23:41:57.358Z,2.67
2022-08-24T23:44:27.593Z,2.35
2022-08-24T23:46:56.396Z,2.47
2022-08-24T23:49:25.903Z,2.72
2022-08-24T23:51:54.598Z,2.38
2022-08-24T23:54:23.580Z,2.25
2022-08-24T23:56:52.756Z,2.72
2022-08-24T23:59:24.306Z,2.53
